createdAt,value
2023-03-11T00:00:13.564Z,47.25
2023-03-11T00:02:41.575Z,47.22
2023-03-11T00:05:10.211Z,47.28
2023-03-11T00:07:39.958Z,47.13
2023-03-11T00:10:11.503Z,47.35
2023-03-11T00:12:39.497Z,47.63
2023-03-11T00:15:08.086Z,47.71
2023-03-11T00:17:36.151Z,47.87
2023-03-11T00:20:05.239Z,47.74
2023-03-11T00:22:33.298Z,47.85
2023-03-11T00:25:01.178Z,48.02
2023-03-11T00:27:30.436Z,48.09
2023-03-11T00:29:58.508Z,48.18
2023-03-11T00:32:27.200Z,48.22
2023-03-11T00:34:55.113Z,48.29
2023-03-11T00:37:23.275Z,48.53
2023-03-11T00:39:51.228Z,48.60
2023-03-11T00:42:19.082Z,48.72
2023-03-11T00:44:48.375Z,48.88
2023-03-11T00:47:16.268Z,49.06
2023-03-11T00:49:44.556Z,49.17
2023-03-11T00:52:12.495Z,49.15
2023-03-11T00:54:40.565Z,49.24
2023-03-11T00:57:08.499Z,49.32
2023-03-11T00:59:36.588Z,49.64
2023-03-11T01:02:06.017Z,49.25
2023-03-11T01:04:34.205Z,49.39
2023-03-11T01:07:02.142Z,49.44
2023-03-11T01:09:31.612Z,49.52
2023-03-11T01:12:00.015Z,49.65
2023-03-11T01:14:28.052Z,49.60
2023-03-11T01:16:56.936Z,49.52
2023-03-11T01:19:26.192Z,49.60
2023-03-11T01:21:55.367Z,49.53
2023-03-11T01:24:23.278Z,49.60
2023-03-11T01:26:51.182Z,49.44
2023-03-11T01:29:19.246Z,49.78
2023-03-11T01:31:47.103Z,49.19
2023-03-11T01:34:15.001Z,49.53
2023-03-11T01:36:44.269Z,49.17
2023-03-11T01:39:12.482Z,49.28
2023-03-11T01:41:40.435Z,49.13
2023-03-11T01:44:08.407Z,48.76
2023-03-11T01:46:41.259Z,48.93
2023-03-11T01:49:11.246Z,48.70
2023-03-11T01:51:40.570Z,48.60
2023-03-11T01:54:12.897Z,48.14
2023-03-11T01:56:41.818Z,47.97
2023-03-11T01:59:10.389Z,48.06
2023-03-11T02:01:39.862Z,47.91
2023-03-11T02:04:07.843Z,47.99
2023-03-11T02:06:35.761Z,47.99
2023-03-11T02:09:03.849Z,47.75
2023-03-11T02:11:33.845Z,47.84
2023-03-11T02:14:04.772Z,47.59
2023-03-11T02:16:32.728Z,47.47
2023-03-11T02:19:01.437Z,47.17
2023-03-11T02:21:30.536Z,47.15
2023-03-11T02:24:05.847Z,47.16
2023-03-11T02:26:37.163Z,47.04
2023-03-11T02:29:07.031Z,47.15
2023-03-11T02:31:35.006Z,47.29
2023-03-11T02:34:03.245Z,47.45
2023-03-11T02:36:36.198Z,47.14
2023-03-11T02:39:05.530Z,47.06
2023-03-11T02:41:33.904Z,47.12
2023-03-11T02:44:01.835Z,47.04
2023-03-11T02:46:32.471Z,47.31
2023-03-11T02:49:00.822Z,46.92
2023-03-11T02:51:28.743Z,47.14
2023-03-11T02:53:58.901Z,47.30
2023-03-11T02:56:29.058Z,47.16
2023-03-11T02:58:56.980Z,47.26
2023-03-11T03:01:24.938Z,47.38
2023-03-11T03:03:54.390Z,47.35
2023-03-11T03:06:22.471Z,46.90
2023-03-11T03:08:52.518Z,47.17
2023-03-11T03:11:20.702Z,47.26
2023-03-11T03:13:49.207Z,47.34
2023-03-11T03:16:17.292Z,47.55
2023-03-11T03:18:45.244Z,47.29
2023-03-11T03:21:14.619Z,47.34
2023-03-11T03:23:42.687Z,47.61
2023-03-11T03:26:13.091Z,47.80
2023-03-11T03:28:43.061Z,47.97
2023-03-11T03:31:11.421Z,48.04
2023-03-11T03:33:41.554Z,48.05
2023-03-11T03:36:11.146Z,48.54
2023-03-11T03:38:46.861Z,48.54
2023-03-11T03:41:15.992Z,48.73
2023-03-11T03:43:44.227Z,48.86
2023-03-11T03:46:12.873Z,48.89
2023-03-11T03:48:44.758Z,49.08
2023-03-11T03:51:14.119Z,49.26
2023-03-11T03:53:50.842Z,49.31
2023-03-11T03:56:19.260Z,49.26
2023-03-11T03:58:47.224Z,49.65
2023-03-11T04:01:15.454Z,49.79
2023-03-11T04:03:43.856Z,49.59
2023-03-11T04:06:17.413Z,49.76
2023-03-11T04:08:45.861Z,50.11
2023-03-11T04:11:15.839Z,50.20
2023-03-11T04:13:44.795Z,50.15
2023-03-11T04:16:15.859Z,50.26
2023-03-11T04:18:44.179Z,50.37
2023-03-11T04:21:12.336Z,50.35
2023-03-11T04:23:40.601Z,50.64
2023-03-11T04:26:09.157Z,50.31
2023-03-11T04:28:39.962Z,50.64
2023-03-11T04:31:08.431Z,50.72
2023-03-11T04:33:36.995Z,50.80
2023-03-11T04:36:07.594Z,51.10
2023-03-11T04:38:36.798Z,51.25
2023-03-11T04:41:05.424Z,51.30
2023-03-11T04:43:33.910Z,51.57
2023-03-11T04:46:03.363Z,51.53
2023-03-11T04:48:31.328Z,51.62
2023-03-11T04:50:59.587Z,51.80
2023-03-11T04:53:28.548Z,51.71
2023-03-11T04:55:57.201Z,51.84
2023-03-11T04:58:25.166Z,52.07
2023-03-11T05:00:53.470Z,51.95
2023-03-11T05:03:23.913Z,52.01
2023-03-11T05:05:54.228Z,51.85
2023-03-11T05:08:22.493Z,52.02
2023-03-11T05:10:50.468Z,52.08
2023-03-11T05:13:18.390Z,52.23
2023-03-11T05:15:46.344Z,52.15
2023-03-11T05:18:14.492Z,52.33
2023-03-11T05:20:44.187Z,52.14
2023-03-11T05:23:13.419Z,52.28
2023-03-11T05:25:42.228Z,52.53
2023-03-11T05:28:10.971Z,52.43
2023-03-11T05:30:44.858Z,52.61
2023-03-11T05:33:13.039Z,52.58
2023-03-11T05:35:41.129Z,52.89
2023-03-11T05:38:41.327Z,52.94
2023-03-11T05:41:09.632Z,53.22
2023-03-11T05:43:38.146Z,53.23
2023-03-11T05:46:06.200Z,53.76
2023-03-11T05:48:36.329Z,53.35
2023-03-11T05:51:07.962Z,53.68
2023-03-11T05:53:37.722Z,53.58
2023-03-11T05:56:06.476Z,53.62
2023-03-11T05:58:34.669Z,53.86
2023-03-11T06:01:02.879Z,53.64
2023-03-11T06:03:31.081Z,53.64
2023-03-11T06:05:59.237Z,53.67
2023-03-11T06:08:27.283Z,53.59
2023-03-11T06:11:02.212Z,53.91
2023-03-11T06:13:30.569Z,53.93
2023-03-11T06:15:58.543Z,53.86
2023-03-11T06:18:26.927Z,54.06
2023-03-11T06:20:55.054Z,53.96
2023-03-11T06:23:23.036Z,54.16
2023-03-11T06:25:57.877Z,54.46
2023-03-11T06:28:26.722Z,54.51
2023-03-11T06:30:56.839Z,54.59
2023-03-11T06:33:25.205Z,54.83
2023-03-11T06:35:59.328Z,54.74
2023-03-11T06:38:27.296Z,54.93
2023-03-11T06:40:55.307Z,55.16
2023-03-11T06:43:25.030Z,55.33
2023-03-11T06:45:54.402Z,55.60
2023-03-11T06:48:22.523Z,55.64
2023-03-11T06:50:57.378Z,55.79
2023-03-11T06:53:26.280Z,55.93
2023-03-11T06:56:01.797Z,55.83
2023-03-11T06:58:33.531Z,55.80
2023-03-11T07:01:02.343Z,55.95
2023-03-11T07:03:30.881Z,56.14
2023-03-11T07:05:59.833Z,56.23
2023-03-11T07:08:27.785Z,56.26
2023-03-11T07:11:03.393Z,56.46
2023-03-11T07:13:33.218Z,56.47
2023-03-11T07:16:02.399Z,56.55
2023-03-11T07:18:30.427Z,56.75
2023-03-11T07:20:58.408Z,56.87
2023-03-11T07:23:26.334Z,56.85
2023-03-11T07:25:55.855Z,57.26
2023-03-11T07:28:24.105Z,56.83
2023-03-11T07:30:53.399Z,57.28
2023-03-11T07:33:21.598Z,57.10
2023-03-11T07:35:50.095Z,57.44
2023-03-11T07:38:18.109Z,57.41
2023-03-11T07:40:46.608Z,57.52
2023-03-11T07:43:15.085Z,57.68
2023-03-11T07:45:43.128Z,57.57
2023-03-11T07:48:12.575Z,57.99
2023-03-11T07:50:40.476Z,57.83
2023-03-11T07:53:08.549Z,57.73
2023-03-11T07:55:36.790Z,57.76
2023-03-11T07:58:04.688Z,57.95
2023-03-11T08:00:32.672Z,57.88
2023-03-11T08:03:00.798Z,57.99
2023-03-11T08:05:30.201Z,58.01
2023-03-11T08:07:58.164Z,58.07
2023-03-11T08:10:26.081Z,58.24
2023-03-11T08:12:54.067Z,58.01
2023-03-11T08:15:22.063Z,57.86
2023-03-11T08:17:50.071Z,57.83
2023-03-11T08:20:18.257Z,57.80
2023-03-11T08:22:57.615Z,57.87
2023-03-11T08:25:26.213Z,57.67
2023-03-11T08:27:54.098Z,57.89
2023-03-11T08:30:22.291Z,57.77
2023-03-11T08:32:50.318Z,57.76
2023-03-11T08:35:18.554Z,58.08
2023-03-11T08:37:47.823Z,57.84
2023-03-11T08:40:15.810Z,57.94
2023-03-11T08:42:44.000Z,57.90
2023-03-11T08:45:12.733Z,57.78
2023-03-11T08:47:40.839Z,58.00
2023-03-11T08:50:10.438Z,57.82
2023-03-11T08:52:38.444Z,57.84
2023-03-11T08:55:11.233Z,57.98
2023-03-11T08:57:39.292Z,58.06
2023-03-11T09:00:10.662Z,57.82
2023-03-11T09:02:41.619Z,57.70
2023-03-11T09:05:10.550Z,57.92
2023-03-11T09:07:38.473Z,58.12
2023-03-11T09:10:08.456Z,58.23
2023-03-11T09:12:36.469Z,58.29
2023-03-11T09:15:05.807Z,57.98
2023-03-11T09:17:33.835Z,58.05
2023-03-11T09:20:02.015Z,58.05
2023-03-11T09:22:30.058Z,58.00
2023-03-11T09:24:58.923Z,58.28
2023-03-11T09:27:28.326Z,58.38
2023-03-11T09:29:56.304Z,58.35
2023-03-11T09:32:24.275Z,57.65
2023-03-11T09:34:52.224Z,58.18
2023-03-11T09:37:20.133Z,58.20
2023-03-11T09:39:48.128Z,57.83
2023-03-11T09:42:20.023Z,58.18
2023-03-11T09:44:53.317Z,57.69
2023-03-11T09:47:38.611Z,57.70
2023-03-11T09:50:18.227Z,58.05
2023-03-11T09:52:48.122Z,58.02
2023-03-11T09:55:33.906Z,57.62
2023-03-11T09:58:03.552Z,57.46
2023-03-11T10:00:32.894Z,57.38
2023-03-11T10:03:01.527Z,57.64
2023-03-11T10:05:30.179Z,57.67
2023-03-11T10:08:00.626Z,57.38
2023-03-11T10:10:30.003Z,57.21
2023-03-11T10:13:00.899Z,57.43
2023-03-11T10:15:39.410Z,56.95
2023-03-11T10:18:24.845Z,57.16
2023-03-11T10:20:55.719Z,57.16
2023-03-11T10:23:27.332Z,57.28
2023-03-11T10:26:02.230Z,57.17
2023-03-11T10:28:33.416Z,57.03
2023-03-11T10:31:05.495Z,57.05
2023-03-11T10:33:35.284Z,57.33
2023-03-11T10:36:06.166Z,57.25
2023-03-11T10:38:35.254Z,57.07
2023-03-11T10:41:06.288Z,57.30
2023-03-11T10:43:36.442Z,57.28
2023-03-11T10:46:08.009Z,57.49
2023-03-11T10:48:36.044Z,57.03
2023-03-11T10:51:05.196Z,57.38
2023-03-11T10:53:33.196Z,57.35
2023-03-11T10:56:01.123Z,57.31
2023-03-11T10:58:30.019Z,57.16
2023-03-11T11:01:06.942Z,57.32
2023-03-11T11:03:34.903Z,57.53
2023-03-11T11:06:04.576Z,57.03
2023-03-11T11:08:32.581Z,56.99
2023-03-11T11:11:01.139Z,56.89
2023-03-11T11:13:30.248Z,56.93
2023-03-11T11:16:00.203Z,57.02
2023-03-11T11:18:30.842Z,56.88
2023-03-11T11:21:04.291Z,56.99
2023-03-11T11:23:34.403Z,56.69
2023-03-11T11:26:04.711Z,56.78
2023-03-11T11:28:33.623Z,56.96
2023-03-11T11:31:03.691Z,56.48
2023-03-11T11:33:33.837Z,56.32
2023-03-11T11:36:03.389Z,56.27
2023-03-11T11:38:32.228Z,56.33
2023-03-11T11:41:02.510Z,56.31
2023-03-11T11:43:49.706Z,56.36
2023-03-11T11:46:27.083Z,56.54
2023-03-11T11:49:05.363Z,56.37
2023-03-11T11:51:35.295Z,56.15
2023-03-11T11:54:07.193Z,55.96
2023-03-11T11:56:35.122Z,55.87
2023-03-11T11:59:03.078Z,55.57
2023-03-11T12:01:36.357Z,55.60
2023-03-11T12:04:21.973Z,55.63
2023-03-11T12:06:52.057Z,56.09
2023-03-11T12:09:24.439Z,55.76
2023-03-11T12:11:53.650Z,55.25
2023-03-11T12:14:22.753Z,54.88
2023-03-11T12:16:53.834Z,54.95
2023-03-11T12:19:29.783Z,54.87
2023-03-11T12:22:32.050Z,55.11
2023-03-11T12:25:14.926Z,55.08
2023-03-11T12:27:44.460Z,55.10
2023-03-11T12:30:14.598Z,54.80
2023-03-11T12:32:44.481Z,54.89
2023-03-11T12:35:21.445Z,55.25
2023-03-11T12:37:56.886Z,54.82
2023-03-11T12:41:00.173Z,54.97
2023-03-11T12:43:49.992Z,55.21
2023-03-11T12:46:18.881Z,55.31
2023-03-11T12:48:47.125Z,54.89
2023-03-11T12:51:41.483Z,54.95
2023-03-11T12:54:23.110Z,54.92
2023-03-11T12:56:52.714Z,54.61
2023-03-11T12:59:45.374Z,54.45
2023-03-11T13:02:20.747Z,54.69
2023-03-11T13:04:52.626Z,54.40
2023-03-11T13:07:38.156Z,54.52
2023-03-11T13:10:21.434Z,54.53
2023-03-11T13:12:49.616Z,54.70
2023-03-11T13:15:43.092Z,55.34
2023-03-11T13:18:19.261Z,55.30
2023-03-11T13:20:56.141Z,55.83
2023-03-11T13:23:30.461Z,55.98
2023-03-11T13:26:14.894Z,56.43
2023-03-11T13:29:01.813Z,56.54
2023-03-11T13:31:39.214Z,56.76
2023-03-11T13:34:16.340Z,56.88
2023-03-11T13:36:55.575Z,57.28
2023-03-11T13:39:32.800Z,57.83
2023-03-11T13:42:00.704Z,57.80
2023-03-11T13:44:30.460Z,58.22
2023-03-11T13:47:01.810Z,58.46
2023-03-11T13:49:34.429Z,58.79
2023-03-11T13:52:02.895Z,58.77
2023-03-11T13:54:36.014Z,58.77
2023-03-11T13:57:04.086Z,59.22
2023-03-11T13:59:33.692Z,59.62
2023-03-11T14:02:02.978Z,59.48
2023-03-11T14:04:31.919Z,59.68
2023-03-11T14:06:59.973Z,60.10
2023-03-11T14:09:28.893Z,59.87
2023-03-11T14:12:04.818Z,60.14
2023-03-11T14:14:38.398Z,60.07
2023-03-11T14:17:06.780Z,60.08
2023-03-11T14:19:34.673Z,60.43
2023-03-11T14:22:02.567Z,60.47
2023-03-11T14:24:30.862Z,60.30
2023-03-11T14:27:01.238Z,60.41
2023-03-11T14:29:32.372Z,60.56
2023-03-11T14:32:00.475Z,60.63
2023-03-11T14:34:30.034Z,60.87
2023-03-11T14:36:59.026Z,60.91
2023-03-11T14:39:29.143Z,60.94
2023-03-11T14:42:01.122Z,60.74
2023-03-11T14:44:29.281Z,61.45
2023-03-11T14:46:59.903Z,61.53
2023-03-11T14:49:27.958Z,61.25
2023-03-11T14:51:58.040Z,61.25
2023-03-11T14:54:26.866Z,61.32
2023-03-11T14:56:57.362Z,61.58
2023-03-11T14:59:27.832Z,61.64
2023-03-11T15:01:56.393Z,61.39
2023-03-11T15:04:27.981Z,61.57
2023-03-11T15:06:55.932Z,61.86
2023-03-11T15:09:24.970Z,61.79
2023-03-11T15:11:55.251Z,61.98
2023-03-11T15:14:24.374Z,62.01
2023-03-11T15:16:53.854Z,62.03
2023-03-11T15:19:31.194Z,62.47
2023-03-11T15:22:06.794Z,62.11
2023-03-11T15:24:34.953Z,61.99
2023-03-11T15:27:03.724Z,62.21
2023-03-11T15:29:31.957Z,62.58
2023-03-11T15:32:01.459Z,62.15
2023-03-11T15:34:30.971Z,62.44
2023-03-11T15:37:21.023Z,62.24
2023-03-11T15:39:51.251Z,62.50
2023-03-11T15:42:21.235Z,62.37
2023-03-11T15:45:14.573Z,62.69
2023-03-11T15:47:43.958Z,62.96
2023-03-11T15:50:24.045Z,62.91
2023-03-11T15:52:53.100Z,62.71
2023-03-11T15:55:21.081Z,63.00
2023-03-11T15:57:49.092Z,62.71
2023-03-11T16:00:19.394Z,63.05
2023-03-11T16:02:48.845Z,62.60
2023-03-11T16:05:17.640Z,62.85
2023-03-11T16:07:46.721Z,62.80
2023-03-11T16:10:15.230Z,63.00
2023-03-11T16:12:43.556Z,63.17
2023-03-11T16:15:22.260Z,63.37
2023-03-11T16:17:52.217Z,63.73
2023-03-11T16:20:21.846Z,63.95
2023-03-11T16:22:50.243Z,64.05
2023-03-11T16:25:23.150Z,63.59
2023-03-11T16:27:52.120Z,63.71
2023-03-11T16:30:20.344Z,63.90
2023-03-11T16:32:48.281Z,64.21
2023-03-11T16:35:17.799Z,63.88
2023-03-11T16:37:45.827Z,63.70
2023-03-11T16:40:14.590Z,63.84
2023-03-11T16:42:43.619Z,64.25
2023-03-11T16:45:12.101Z,64.15
2023-03-11T16:47:40.078Z,64.24
2023-03-11T16:50:09.046Z,64.33
2023-03-11T16:52:38.378Z,64.08
2023-03-11T16:55:07.201Z,64.07
2023-03-11T16:57:35.132Z,64.45
2023-03-11T17:00:05.529Z,64.62
2023-03-11T17:02:33.621Z,64.79
2023-03-11T17:05:01.545Z,65.69
2023-03-11T17:07:29.558Z,65.28
2023-03-11T17:09:59.050Z,65.16
2023-03-11T17:12:27.118Z,65.27
2023-03-11T17:14:55.342Z,65.59
2023-03-11T17:17:23.517Z,65.72
2023-03-11T17:19:51.479Z,65.36
2023-03-11T17:22:19.461Z,65.47
2023-03-11T17:24:47.381Z,65.90
2023-03-11T17:27:16.611Z,66.33
2023-03-11T17:29:44.562Z,66.49
2023-03-11T17:32:16.785Z,66.56
2023-03-11T17:34:45.145Z,66.25
2023-03-11T17:37:14.209Z,66.76
2023-03-11T17:39:42.275Z,66.76
2023-03-11T17:42:10.347Z,66.80
2023-03-11T17:44:51.020Z,66.66
2023-03-11T17:47:20.644Z,67.39
2023-03-11T17:49:48.780Z,66.98
2023-03-11T17:52:17.002Z,67.36
2023-03-11T17:54:44.919Z,67.18
2023-03-11T17:57:12.862Z,67.29
2023-03-11T17:59:42.168Z,67.66
2023-03-11T18:02:13.462Z,67.60
2023-03-11T18:04:43.415Z,68.34
2023-03-11T18:07:11.377Z,68.16
2023-03-11T18:09:39.445Z,68.23
2023-03-11T18:12:07.706Z,68.43
2023-03-11T18:14:35.636Z,68.43
2023-03-11T18:17:05.193Z,68.62
2023-03-11T18:19:33.097Z,68.53
2023-03-11T18:22:01.037Z,68.41
2023-03-11T18:24:28.936Z,68.27
2023-03-11T18:26:56.854Z,68.38
2023-03-11T18:29:24.822Z,68.27
2023-03-11T18:31:53.871Z,68.19
2023-03-11T18:34:23.267Z,68.77
2023-03-11T18:36:51.214Z,68.67
2023-03-11T18:39:20.754Z,68.62
2023-03-11T18:41:48.722Z,68.49
2023-03-11T18:44:16.652Z,68.58
2023-03-11T18:46:44.561Z,68.64
2023-03-11T18:49:13.106Z,68.94
2023-03-11T18:51:42.386Z,68.53
2023-03-11T18:54:11.316Z,68.51
2023-03-11T18:56:39.286Z,68.35
2023-03-11T18:59:08.602Z,68.48
2023-03-11T19:01:36.796Z,68.96
2023-03-11T19:04:04.780Z,68.68
2023-03-11T19:06:32.861Z,68.66
2023-03-11T19:09:02.226Z,68.88
2023-03-11T19:11:30.278Z,68.87
2023-03-11T19:13:58.206Z,68.85
2023-03-11T19:16:26.769Z,68.97
2023-03-11T19:18:55.198Z,69.17
2023-03-11T19:21:23.246Z,68.57
2023-03-11T19:23:55.274Z,68.70
2023-03-11T19:26:41.501Z,68.77
2023-03-11T19:29:12.116Z,68.88
2023-03-11T19:31:40.091Z,69.23
2023-03-11T19:34:08.127Z,69.03
2023-03-11T19:36:36.125Z,69.03
2023-03-11T19:39:04.247Z,68.76
2023-03-11T19:41:33.668Z,68.76
2023-03-11T19:44:04.111Z,68.38
2023-03-11T19:46:34.809Z,68.62
2023-03-11T19:49:03.170Z,68.27
2023-03-11T19:51:46.322Z,68.47
2023-03-11T19:54:17.147Z,68.39
2023-03-11T19:56:46.549Z,68.46
2023-03-11T19:59:14.602Z,68.29
2023-03-11T20:01:43.286Z,68.40
2023-03-11T20:04:11.546Z,68.57
2023-03-11T20:06:39.667Z,68.27
2023-03-11T20:09:07.933Z,68.48
2023-03-11T20:11:39.658Z,68.41
2023-03-11T20:14:09.331Z,68.34
2023-03-11T20:16:37.481Z,68.31
2023-03-11T20:19:05.497Z,68.23
2023-03-11T20:21:38.887Z,68.67
2023-03-11T20:24:07.250Z,68.21
2023-03-11T20:26:35.503Z,68.28
2023-03-11T20:29:03.461Z,68.15
2023-03-11T20:31:33.144Z,67.98
2023-03-11T20:34:01.327Z,68.23
2023-03-11T20:36:33.042Z,67.77
2023-03-11T20:39:01.209Z,67.89
2023-03-11T20:41:29.401Z,67.67
2023-03-11T20:43:57.939Z,68.01
2023-03-11T20:46:25.960Z,67.97
2023-03-11T20:48:55.436Z,67.99
2023-03-11T20:51:25.067Z,67.70
2023-03-11T20:53:53.057Z,67.57
2023-03-11T20:56:22.106Z,67.91
2023-03-11T20:58:51.066Z,67.98
2023-03-11T21:01:20.294Z,67.90
2023-03-11T21:03:48.907Z,67.81
2023-03-11T21:06:19.443Z,68.02
2023-03-11T21:08:47.632Z,67.69
2023-03-11T21:11:16.314Z,68.07
2023-03-11T21:13:44.519Z,67.95
2023-03-11T21:16:12.645Z,68.04
2023-03-11T21:18:41.361Z,68.03
2023-03-11T21:21:11.653Z,67.97
2023-03-11T21:23:41.154Z,67.50
2023-03-11T21:26:09.154Z,67.86
2023-03-11T21:28:38.895Z,67.74
2023-03-11T21:31:10.895Z,68.00
2023-03-11T21:33:39.270Z,67.94
2023-03-11T21:36:08.278Z,67.92
2023-03-11T21:38:36.303Z,67.67
2023-03-11T21:41:09.725Z,67.62
2023-03-11T21:43:37.917Z,67.77
2023-03-11T21:46:06.233Z,68.05
2023-03-11T21:48:34.284Z,67.79
2023-03-11T21:51:02.235Z,67.74
2023-03-11T21:53:30.226Z,67.57
2023-03-11T21:55:59.358Z,67.88
2023-03-11T21:58:28.664Z,67.84
2023-03-11T22:00:57.040Z,67.49
2023-03-11T22:03:25.160Z,67.70
2023-03-11T22:05:57.359Z,67.73
2023-03-11T22:08:25.446Z,67.54
2023-03-11T22:10:53.563Z,67.44
2023-03-11T22:13:21.753Z,67.90
2023-03-11T22:15:51.134Z,67.57
2023-03-11T22:18:19.295Z,68.03
2023-03-11T22:20:47.254Z,67.70
2023-03-11T22:23:15.308Z,67.64
2023-03-11T22:25:43.414Z,67.58
2023-03-11T22:28:12.976Z,67.87
2023-03-11T22:30:41.038Z,67.69
2023-03-11T22:33:10.357Z,68.01
2023-03-11T22:35:38.302Z,67.52
2023-03-11T22:38:06.250Z,67.61
2023-03-11T22:40:34.980Z,67.65
2023-03-11T22:43:02.890Z,67.56
2023-03-11T22:45:30.833Z,68.02
2023-03-11T22:47:58.784Z,67.58
2023-03-11T22:50:28.190Z,67.54
2023-03-11T22:52:56.079Z,67.43
2023-03-11T22:55:24.053Z,67.31
2023-03-11T22:57:52.025Z,67.22
2023-03-11T23:00:21.137Z,67.37
2023-03-11T23:02:49.803Z,67.51
2023-03-11T23:05:18.021Z,67.29
2023-03-11T23:07:47.350Z,67.29
2023-03-11T23:10:15.557Z,67.37
2023-03-11T23:12:43.478Z,67.26
2023-03-11T23:15:13.201Z,67.46
2023-03-11T23:17:41.164Z,67.42
2023-03-11T23:20:11.142Z,67.74
2023-03-11T23:22:39.244Z,67.31
2023-03-11T23:25:10.102Z,67.65
2023-03-11T23:27:38.008Z,67.56
2023-03-11T23:30:07.148Z,67.51
2023-03-11T23:32:35.193Z,67.44
2023-03-11T23:35:03.861Z,67.39
2023-03-11T23:37:31.786Z,67.03
2023-03-11T23:39:59.957Z,67.19
2023-03-11T23:42:29.262Z,67.72
2023-03-11T23:44:57.482Z,67.28
2023-03-11T23:47:25.644Z,67.60
2023-03-11T23:49:53.515Z,67.43
2023-03-11T23:52:21.503Z,67.17
2023-03-11T23:54:49.426Z,67.07
2023-03-11T23:57:17.489Z,67.15
2023-03-11T23:59:46.812Z,67.10
